Gold Coast — WDC9135 — position and weather

sailwx.info

Track history (hours):
 
Tides and Currents Weather Stations Pressure Air Temp Water Temp Dewpoint Dewpoint Depression Visibility Wind Speed Wind Dir Waves Ship Positions

Gold Coast

Owner: Dann Marine Towing, LC, Chesapeake City, MD. More information available from US FCC via Universal Licensing System and Coast Guard Vessel Documentation Center.

Last reported at 2018-Jul-22 12:31 UTC. Time now 2018-Jul-22 12:55 UTC.
Position N 36°44' W 076°15'.

; draft 3 m.

Type: Tug. MMSI: 367098010.

Date/timePositionNaut miles runAvg speedWind from/ knotsBaromVisibWave heightAir tempDewpointWater temp
2018-Jul-22 12:31N 36°44' W 076°15'1 0.0
2018-Jul-21 08:07N 36°43' W 076°14'0 3.7
2018-Jul-21 08:01N 36°43' W 076°15'0 0.6
2018-Jul-21 07:30N 36°43' W 076°15'2 4.0
2018-Jul-21 07:00N 36°44' W 076°17'2 4.8
2018-Jul-21 06:31N 36°46' W 076°18'0 0.9
2018-Jul-21 06:01N 36°47' W 076°18'1 1.7
2018-Jul-21 05:31N 36°48' W 076°18'2 4.0
2018-Jul-21 05:00N 36°49' W 076°17'1 2.6
2018-Jul-21 04:30N 36°51' W 076°18'2 4.9
2018-Jul-21 04:01N 36°52' W 076°20'1 0.1
2018-Jul-20 22:24N 36°53' W 076°20'3 7.6
2018-Jul-20 22:01N 36°51' W 076°18'3 7.0
2018-Jul-20 21:31N 36°47' W 076°18'3 5.0
2018-Jul-20 21:00N 36°45' W 076°18'3 5.2
2018-Jul-20 20:31N 36°44' W 076°15'1 0.0
2018-Jul-19 21:22N 36°43' W 076°14'1 2.1
2018-Jul-19 21:00N 36°43' W 076°15'1 2.9
2018-Jul-19 20:31N 36°44' W 076°17'2 4.4
2018-Jul-19 20:00N 36°46' W 076°18'2 3.7
2018-Jul-19 19:30N 36°48' W 076°18'1 1.9
2018-Jul-19 19:01N 36°49' W 076°17'4 6.0
2018-Jul-19 18:24N 36°52' W 076°19'2 0.8
2018-Jul-19 16:35N 36°53' W 076°20'0 0.0
2018-Jul-19 11:36N 36°53' W 076°20'0 0.0
2018-Jul-19 11:26N 36°53' W 076°20'0 0.0
2018-Jul-19 11:00N 36°53' W 076°20'0 0.0
2018-Jul-19 10:28N 36°53' W 076°20'1 2.0
2018-Jul-19 10:01N 36°52' W 076°20'2 4.4
2018-Jul-19 09:31N 36°51' W 076°18'2 3.7
2018-Jul-19 09:01N 36°50' W 076°16'0 0.5
2018-Jul-19 08:29N 36°50' W 076°16'1 1.3
2018-Jul-19 08:00N 36°50' W 076°17'0 0.5
2018-Jul-19 07:29N 36°50' W 076°17'2 5.3
2018-Jul-19 07:01N 36°48' W 076°18'0 0.2
2018-Jul-19 06:31N 36°48' W 076°18'0 0.0
2018-Jul-19 06:01N 36°48' W 076°18'0 0.0
2018-Jul-19 05:31N 36°48' W 076°18'0 0.0
2018-Jul-19 05:00N 36°48' W 076°18'0 0.0
2018-Jul-19 04:31N 36°48' W 076°18'0 0.0
2018-Jul-19 04:01N 36°48' W 076°18'0 0.0
2018-Jul-19 03:31N 36°48' W 076°18'0 0.0
2018-Jul-19 03:00N 36°48' W 076°18'0 0.0
2018-Jul-19 02:30N 36°48' W 076°18'0 0.0
2018-Jul-19 02:00N 36°48' W 076°18'0 0.0
2018-Jul-19 01:31N 36°48' W 076°18'0 0.0
2018-Jul-19 01:00N 36°48' W 076°18'0 0.0
2018-Jul-19 00:30N 36°48' W 076°18'0 0.0
2018-Jul-19 00:01N 36°48' W 076°18'0 0.0
2018-Jul-18 23:31N 36°48' W 076°18'0 0.0
2018-Jul-18 23:01N 36°48' W 076°18'0 0.0
2018-Jul-18 22:31N 36°48' W 076°18'0 0.0
2018-Jul-18 22:01N 36°48' W 076°18'0 0.0
2018-Jul-18 21:30N 36°48' W 076°18'0 0.0
2018-Jul-18 21:01N 36°48' W 076°18'0 0.0
2018-Jul-18 20:30N 36°48' W 076°18'0 0.0
2018-Jul-18 20:01N 36°48' W 076°18'0 0.0
2018-Jul-18 19:31N 36°48' W 076°18'0 0.0
2018-Jul-18 19:01N 36°48' W 076°18'0 0.0
2018-Jul-18 18:31N 36°48' W 076°18'0 0.0
2018-Jul-18 18:01N 36°48' W 076°18'0 0.0
2018-Jul-18 17:31N 36°48' W 076°18'0 0.0
2018-Jul-18 17:00N 36°48' W 076°18'0 0.0
2018-Jul-18 16:31N 36°48' W 076°18'0 0.0
2018-Jul-18 16:01N 36°48' W 076°18'0 0.0
2018-Jul-18 15:31N 36°48' W 076°18'0 0.0
2018-Jul-18 15:01N 36°48' W 076°18'0 0.0
2018-Jul-18 14:31N 36°48' W 076°18'0 0.0
2018-Jul-18 13:31N 36°48' W 076°18'0 0.0
2018-Jul-18 13:01N 36°48' W 076°18'0 0.0
2018-Jul-18 12:31N 36°48' W 076°18'0 0.0
2018-Jul-18 12:01N 36°48' W 076°18'0 0.0
2018-Jul-18 11:30N 36°48' W 076°18'0 0.0
2018-Jul-18 10:31N 36°48' W 076°18'0 0.0
2018-Jul-18 10:01N 36°48' W 076°18'0 0.0
2018-Jul-18 09:30N 36°48' W 076°18'0 0.0
2018-Jul-18 09:01N 36°48' W 076°18'0 0.0
2018-Jul-18 08:30N 36°48' W 076°18'0 0.0
2018-Jul-18 08:01N 36°48' W 076°18'0 0.0
2018-Jul-18 07:31N 36°48' W 076°18'0 0.0
2018-Jul-18 07:01N 36°48' W 076°18'0 0.0
2018-Jul-18 06:31N 36°48' W 076°18'0 0.0
2018-Jul-18 06:00N 36°48' W 076°18'0 0.0
2018-Jul-18 05:31N 36°48' W 076°18'0 0.0
2018-Jul-18 05:01N 36°48' W 076°18'0 0.0
2018-Jul-18 04:31N 36°48' W 076°18'0 0.0
2018-Jul-18 04:00N 36°48' W 076°18'0 0.0
2018-Jul-18 03:31N 36°48' W 076°18'0 0.0
2018-Jul-18 03:01N 36°48' W 076°18'0 0.0
2018-Jul-18 02:31N 36°48' W 076°18'0 0.0
2018-Jul-18 02:01N 36°48' W 076°18'0 0.0
2018-Jul-18 01:31N 36°48' W 076°18'0 0.0
2018-Jul-18 01:01N 36°48' W 076°18'0 0.0
2018-Jul-18 00:30N 36°48' W 076°18'0 0.0
2018-Jul-18 00:01N 36°48' W 076°18'0 0.0
2018-Jul-17 23:31N 36°48' W 076°18'0 0.0
2018-Jul-17 23:01N 36°48' W 076°18'0 0.0
2018-Jul-17 22:31N 36°48' W 076°18'0 0.0
2018-Jul-17 22:01N 36°48' W 076°18'0 0.0
2018-Jul-17 21:31N 36°48' W 076°18'0 0.0
2018-Jul-17 21:01N 36°48' W 076°18'0 0.0
2018-Jul-17 20:31N 36°48' W 076°18'0 0.0
2018-Jul-17 20:01N 36°48' W 076°18'0 0.0
2018-Jul-17 19:31N 36°48' W 076°18'0 0.0
2018-Jul-17 19:01N 36°48' W 076°18'0 0.0
2018-Jul-17 18:31N 36°48' W 076°18'0 0.0
2018-Jul-17 18:01N 36°48' W 076°18'0 0.0
2018-Jul-17 17:30N 36°48' W 076°18'0 0.0
2018-Jul-17 17:01N 36°48' W 076°18'0 0.0
2018-Jul-17 16:30N 36°48' W 076°18'0 0.0
2018-Jul-17 16:01N 36°48' W 076°18'0 0.0
2018-Jul-17 15:31N 36°48' W 076°18'0 0.0
2018-Jul-17 15:00N 36°48' W 076°18'0 0.0
2018-Jul-17 14:31N 36°48' W 076°18'0 0.0
2018-Jul-17 14:01N 36°48' W 076°18'0 0.0
2018-Jul-17 13:31N 36°48' W 076°18'0 0.0
2018-Jul-17 13:00N 36°48' W 076°18'0 0.0
2018-Jul-17 12:30N 36°48' W 076°18'0 0.0
2018-Jul-17 12:01N 36°48' W 076°18'0 0.0
2018-Jul-17 11:31N 36°48' W 076°18'0 0.0
2018-Jul-17 11:01N 36°48' W 076°18'0 0.0
2018-Jul-17 10:31N 36°48' W 076°18'0 0.0
2018-Jul-17 10:00N 36°48' W 076°18'0 0.0
2018-Jul-17 09:30N 36°48' W 076°18'0 0.0
2018-Jul-17 09:00N 36°48' W 076°18'0 0.0
2018-Jul-17 08:31N 36°48' W 076°18'0 0.0
2018-Jul-17 08:01N 36°48' W 076°18'0 0.0
2018-Jul-17 07:30N 36°48' W 076°18'0 0.0
2018-Jul-17 07:00N 36°48' W 076°18'0 0.0
2018-Jul-17 06:31N 36°48' W 076°18'0 0.0
2018-Jul-17 06:01N 36°48' W 076°18'0 0.0
2018-Jul-17 05:31N 36°48' W 076°18'0 0.0
2018-Jul-17 05:00N 36°48' W 076°18'0 0.0
2018-Jul-17 04:31N 36°48' W 076°18'0 0.0
2018-Jul-17 04:01N 36°48' W 076°18'0 0.0
2018-Jul-17 03:31N 36°48' W 076°18'0 0.0
2018-Jul-17 03:00N 36°48' W 076°18'0 0.0
2018-Jul-17 02:31N 36°48' W 076°18'0 0.0
2018-Jul-17 02:01N 36°48' W 076°18'0 0.0
2018-Jul-17 01:31N 36°48' W 076°18'0 0.0
2018-Jul-17 01:01N 36°48' W 076°18'0 0.0
2018-Jul-17 00:29N 36°48' W 076°18'0 0.0
2018-Jul-16 23:31N 36°48' W 076°18'0 0.0
2018-Jul-16 23:01N 36°48' W 076°18'0 0.0
2018-Jul-16 22:31N 36°48' W 076°18'0 0.0
2018-Jul-16 22:01N 36°48' W 076°18'0 0.0
2018-Jul-16 21:30N 36°48' W 076°18'0 0.0
2018-Jul-16 21:01N 36°48' W 076°18'0 0.0
2018-Jul-16 20:31N 36°48' W 076°18'0 0.0
2018-Jul-16 20:01N 36°48' W 076°18'0 0.0
2018-Jul-16 19:31N 36°48' W 076°18'0 0.0
2018-Jul-16 19:01N 36°48' W 076°18'0 0.0
2018-Jul-16 18:31N 36°48' W 076°18'0 0.0
2018-Jul-16 18:01N 36°48' W 076°18'0 0.0
2018-Jul-16 17:30N 36°48' W 076°18'0 0.0
2018-Jul-16 17:01N 36°48' W 076°18'0 0.0
2018-Jul-16 16:30N 36°48' W 076°18'0 0.0
2018-Jul-16 16:00N 36°48' W 076°18'0 0.0
2018-Jul-16 15:30N 36°48' W 076°18'0 0.0
2018-Jul-16 15:01N 36°48' W 076°18'0 0.0
2018-Jul-16 14:30N 36°48' W 076°18'0 0.0
2018-Jul-16 14:00N 36°48' W 076°18'0 0.0
2018-Jul-16 13:31N 36°48' W 076°18'0 0.0
2018-Jul-16 13:01N 36°48' W 076°18'0 0.0
2018-Jul-16 12:30N 36°48' W 076°18'0 0.0
2018-Jul-16 12:01N 36°48' W 076°18'0 0.1
2018-Jul-16 11:31N 36°48' W 076°18'0 0.0
2018-Jul-16 11:00N 36°48' W 076°18'0 0.1
2018-Jul-16 10:31N 36°48' W 076°18'0 0.0
2018-Jul-16 10:01N 36°48' W 076°18'0 0.0
2018-Jul-16 09:30N 36°48' W 076°18'0 0.0
2018-Jul-16 09:00N 36°48' W 076°18'0 0.0
2018-Jul-16 08:30N 36°48' W 076°18'0 0.0
2018-Jul-16 08:00N 36°48' W 076°18'0 0.0
2018-Jul-16 07:30N 36°48' W 076°18'0 0.0
2018-Jul-16 07:00N 36°48' W 076°18'0 0.0
2018-Jul-16 06:30N 36°48' W 076°18'0 0.0
2018-Jul-16 06:00N 36°48' W 076°18'0 0.0
2018-Jul-16 05:30N 36°48' W 076°18'0 0.0
2018-Jul-16 05:00N 36°48' W 076°18'0 0.0
2018-Jul-16 04:30N 36°48' W 076°18'0 0.0
2018-Jul-16 04:00N 36°48' W 076°18'0 0.0
2018-Jul-16 03:30N 36°48' W 076°18'0 0.0
2018-Jul-16 03:00N 36°48' W 076°18'0 0.0
2018-Jul-16 02:30N 36°48' W 076°18'0 0.0
2018-Jul-16 02:00N 36°48' W 076°18'0 0.0
2018-Jul-16 01:30N 36°48' W 076°18'0 0.0
2018-Jul-16 01:00N 36°48' W 076°18'0 0.0
2018-Jul-16 00:30N 36°48' W 076°18'0 0.0
2018-Jul-16 00:00N 36°48' W 076°18'0 0.0
2018-Jul-15 23:30N 36°48' W 076°18'0 0.0
2018-Jul-15 23:00N 36°48' W 076°18'0 0.0
2018-Jul-15 22:30N 36°48' W 076°18'0 0.0
2018-Jul-15 22:00N 36°48' W 076°18'0 0.0
2018-Jul-15 21:30N 36°48' W 076°18'0 0.0
2018-Jul-15 21:00N 36°48' W 076°18'0 0.0
2018-Jul-15 20:30N 36°48' W 076°18'0 0.0
2018-Jul-15 20:00N 36°48' W 076°18'0 0.0
2018-Jul-15 19:30N 36°48' W 076°18'0 0.0
2018-Jul-15 19:00N 36°48' W 076°18'0 0.0
2018-Jul-15 18:30N 36°48' W 076°18'0 0.0
2018-Jul-15 18:00N 36°48' W 076°18'0 0.0
2018-Jul-15 17:30N 36°48' W 076°18'0 0.0
2018-Jul-15 17:00N 36°48' W 076°18'0 0.0
2018-Jul-15 16:30N 36°48' W 076°18'0 0.0
2018-Jul-15 16:00N 36°48' W 076°18'0 0.0
2018-Jul-15 15:30N 36°48' W 076°18'0 0.0
2018-Jul-15 15:00N 36°48' W 076°18'0 0.0
2018-Jul-15 14:30N 36°48' W 076°18'0 0.0
2018-Jul-15 14:00N 36°48' W 076°18'0 0.0
2018-Jul-15 13:30N 36°48' W 076°18'0 0.0
2018-Jul-15 13:00N 36°48' W 076°18'0 0.0
2018-Jul-15 12:30N 36°48' W 076°18'0 0.0
2018-Jul-15 12:00N 36°48' W 076°18'0 0.0
2018-Jul-15 11:30N 36°48' W 076°18'0 0.0
2018-Jul-15 11:00N 36°48' W 076°18'0 0.0
2018-Jul-15 10:30N 36°48' W 076°18'0 0.0
2018-Jul-15 10:00N 36°48' W 076°18'0 0.0
2018-Jul-15 09:30N 36°48' W 076°18'0 0.0
2018-Jul-15 09:00N 36°48' W 076°18'0 0.0
2018-Jul-15 08:29N 36°48' W 076°18'0 0.0
2018-Jul-15 08:00N 36°48' W 076°18'0 0.0
2018-Jul-15 07:30N 36°48' W 076°18'0 0.0
2018-Jul-15 07:00N 36°48' W 076°18'0 0.0
2018-Jul-15 06:30N 36°48' W 076°18'0 0.0
2018-Jul-15 06:00N 36°48' W 076°18'0 0.0
2018-Jul-15 05:30N 36°48' W 076°18'0 0.0
2018-Jul-15 05:00N 36°48' W 076°18'0 0.0
2018-Jul-15 04:30N 36°48' W 076°18'0 0.0
2018-Jul-15 04:00N 36°48' W 076°18'0 0.0
2018-Jul-15 03:30N 36°48' W 076°18'0 0.0
2018-Jul-15 03:00N 36°48' W 076°18'0 0.0
2018-Jul-15 02:30N 36°48' W 076°18'0 0.0
2018-Jul-15 02:00N 36°48' W 076°18'0 0.0
2018-Jul-15 01:30N 36°48' W 076°18'0 0.0
2018-Jul-15 01:00N 36°48' W 076°18'0 0.0
2018-Jul-15 00:30N 36°48' W 076°18'0 0.0
2018-Jul-15 00:00N 36°48' W 076°18'0 0.0
2018-Jul-14 23:30N 36°48' W 076°18'0 0.0
2018-Jul-14 23:00N 36°48' W 076°18'0 0.0
2018-Jul-14 22:30N 36°48' W 076°18'0 0.0
2018-Jul-14 22:00N 36°48' W 076°18'0 0.0
2018-Jul-14 21:30N 36°48' W 076°18'0 0.0
2018-Jul-14 21:00N 36°48' W 076°18'0 0.0
2018-Jul-14 20:30N 36°48' W 076°18'0 0.0
2018-Jul-14 20:00N 36°48' W 076°18'0 0.0
2018-Jul-14 19:30N 36°48' W 076°18'0 0.0
2018-Jul-14 19:00N 36°48' W 076°18'0 0.0
2018-Jul-14 18:30N 36°48' W 076°18'0 0.0
2018-Jul-14 18:00N 36°48' W 076°18'0 0.0
2018-Jul-14 17:30N 36°48' W 076°18'0 0.0
2018-Jul-14 16:59N 36°48' W 076°18'0 0.0
2018-Jul-14 16:30N 36°48' W 076°18'0 0.0
2018-Jul-14 16:00N 36°48' W 076°18'0 0.0
2018-Jul-14 15:30N 36°48' W 076°18'0 0.0
2018-Jul-14 15:00N 36°48' W 076°18'1 1.0
2018-Jul-14 14:30N 36°48' W 076°17'2 2.3
2018-Jul-14 13:30N 36°50' W 076°16'2 4.6
2018-Jul-14 13:00N 36°48' W 076°17'2 4.6
2018-Jul-14 12:30N 36°46' W 076°18'2 4.9
2018-Jul-14 12:00N 36°44' W 076°17'2 3.2
2018-Jul-14 11:29N 36°43' W 076°15'1 0.0
2018-Jul-12 19:55N 36°43' W 076°14'1 1.6
2018-Jul-12 19:25N 36°43' W 076°15'1 2.5
2018-Jul-12 19:00N 36°44' W 076°16'2 3.4
2018-Jul-12 18:30N 36°45' W 076°18'2 4.1
2018-Jul-12 18:00N 36°47' W 076°18'3 5.3
2018-Jul-12 17:30N 36°50' W 076°18'3 5.4
2018-Jul-12 16:59N 36°52' W 076°19'2 3.2
2018-Jul-12 16:30N 36°53' W 076°20'0 0.0
2018-Jul-12 16:00N 36°53' W 076°20'0 0.0
2018-Jul-12 15:30N 36°53' W 076°20'0 0.0
2018-Jul-12 15:00N 36°53' W 076°20'0 0.0
2018-Jul-12 14:30N 36°53' W 076°20'0 0.0
2018-Jul-12 14:00N 36°53' W 076°20'0 0.0
2018-Jul-12 13:30N 36°53' W 076°20'0 0.0
2018-Jul-12 13:00N 36°53' W 076°20'  
Track history (hours):
 
Tides and Currents Weather Stations Pressure Air Temp Water Temp Dewpoint Dewpoint Depression Visibility Wind Speed Wind Dir Waves Ship Positions

Gold Coast

Owner: Dann Marine Towing, LC, Chesapeake City, MD. More information available from US FCC via Universal Licensing System and Coast Guard Vessel Documentation Center.

Last reported at 2018-Jul-22 12:31 UTC. Time now 2018-Jul-22 12:55 UTC.
Position N 36°44' W 076°15'.

; draft 3 m.

Type: Tug. MMSI: 367098010.

Date/timePositionNaut miles runAvg speedWind from/ knotsBaromVisibWave heightAir tempDewpointWater temp
2018-Jul-22 12:31N 36°44' W 076°15'1 0.0
2018-Jul-21 08:07N 36°43' W 076°14'0 3.7
2018-Jul-21 08:01N 36°43' W 076°15'0 0.6
2018-Jul-21 07:30N 36°43' W 076°15'2 4.0
2018-Jul-21 07:00N 36°44' W 076°17'2 4.8
2018-Jul-21 06:31N 36°46' W 076°18'0 0.9
2018-Jul-21 06:01N 36°47' W 076°18'1 1.7
2018-Jul-21 05:31N 36°48' W 076°18'2 4.0
2018-Jul-21 05:00N 36°49' W 076°17'1 2.6
2018-Jul-21 04:30N 36°51' W 076°18'2 4.9
2018-Jul-21 04:01N 36°52' W 076°20'1 0.1
2018-Jul-20 22:24N 36°53' W 076°20'3 7.6
2018-Jul-20 22:01N 36°51' W 076°18'3 7.0
2018-Jul-20 21:31N 36°47' W 076°18'3 5.0
2018-Jul-20 21:00N 36°45' W 076°18'3 5.2
2018-Jul-20 20:31N 36°44' W 076°15'1 0.0
2018-Jul-19 21:22N 36°43' W 076°14'1 2.1
2018-Jul-19 21:00N 36°43' W 076°15'1 2.9
2018-Jul-19 20:31N 36°44' W 076°17'2 4.4
2018-Jul-19 20:00N 36°46' W 076°18'2 3.7
2018-Jul-19 19:30N 36°48' W 076°18'1 1.9
2018-Jul-19 19:01N 36°49' W 076°17'4 6.0
2018-Jul-19 18:24N 36°52' W 076°19'2 0.8
2018-Jul-19 16:35N 36°53' W 076°20'0 0.0
2018-Jul-19 11:36N 36°53' W 076°20'0 0.0
2018-Jul-19 11:26N 36°53' W 076°20'0 0.0
2018-Jul-19 11:00N 36°53' W 076°20'0 0.0
2018-Jul-19 10:28N 36°53' W 076°20'1 2.0
2018-Jul-19 10:01N 36°52' W 076°20'2 4.4
2018-Jul-19 09:31N 36°51' W 076°18'2 3.7
2018-Jul-19 09:01N 36°50' W 076°16'0 0.5
2018-Jul-19 08:29N 36°50' W 076°16'1 1.3
2018-Jul-19 08:00N 36°50' W 076°17'0 0.5
2018-Jul-19 07:29N 36°50' W 076°17'2 5.3
2018-Jul-19 07:01N 36°48' W 076°18'0 0.2
2018-Jul-19 06:31N 36°48' W 076°18'0 0.0
2018-Jul-19 06:01N 36°48' W 076°18'0 0.0
2018-Jul-19 05:31N 36°48' W 076°18'0 0.0
2018-Jul-19 05:00N 36°48' W 076°18'0 0.0
2018-Jul-19 04:31N 36°48' W 076°18'0 0.0
2018-Jul-19 04:01N 36°48' W 076°18'0 0.0
2018-Jul-19 03:31N 36°48' W 076°18'0 0.0
2018-Jul-19 03:00N 36°48' W 076°18'0 0.0
2018-Jul-19 02:30N 36°48' W 076°18'0 0.0
2018-Jul-19 02:00N 36°48' W 076°18'0 0.0
2018-Jul-19 01:31N 36°48' W 076°18'0 0.0
2018-Jul-19 01:00N 36°48' W 076°18'0 0.0
2018-Jul-19 00:30N 36°48' W 076°18'0 0.0
2018-Jul-19 00:01N 36°48' W 076°18'0 0.0
2018-Jul-18 23:31N 36°48' W 076°18'0 0.0
2018-Jul-18 23:01N 36°48' W 076°18'0 0.0
2018-Jul-18 22:31N 36°48' W 076°18'0 0.0
2018-Jul-18 22:01N 36°48' W 076°18'0 0.0
2018-Jul-18 21:30N 36°48' W 076°18'0 0.0
2018-Jul-18 21:01N 36°48' W 076°18'0 0.0
2018-Jul-18 20:30N 36°48' W 076°18'0 0.0
2018-Jul-18 20:01N 36°48' W 076°18'0 0.0
2018-Jul-18 19:31N 36°48' W 076°18'0 0.0
2018-Jul-18 19:01N 36°48' W 076°18'0 0.0
2018-Jul-18 18:31N 36°48' W 076°18'0 0.0
2018-Jul-18 18:01N 36°48' W 076°18'0 0.0
2018-Jul-18 17:31N 36°48' W 076°18'0 0.0
2018-Jul-18 17:00N 36°48' W 076°18'0 0.0
2018-Jul-18 16:31N 36°48' W 076°18'0 0.0
2018-Jul-18 16:01N 36°48' W 076°18'0 0.0
2018-Jul-18 15:31N 36°48' W 076°18'0 0.0
2018-Jul-18 15:01N 36°48' W 076°18'0 0.0
2018-Jul-18 14:31N 36°48' W 076°18'0 0.0
2018-Jul-18 13:31N 36°48' W 076°18'0 0.0
2018-Jul-18 13:01N 36°48' W 076°18'0 0.0
2018-Jul-18 12:31N 36°48' W 076°18'0 0.0
2018-Jul-18 12:01N 36°48' W 076°18'0 0.0
2018-Jul-18 11:30N 36°48' W 076°18'0 0.0
2018-Jul-18 10:31N 36°48' W 076°18'0 0.0
2018-Jul-18 10:01N 36°48' W 076°18'0 0.0
2018-Jul-18 09:30N 36°48' W 076°18'0 0.0
2018-Jul-18 09:01N 36°48' W 076°18'0 0.0
2018-Jul-18 08:30N 36°48' W 076°18'0 0.0
2018-Jul-18 08:01N 36°48' W 076°18'0 0.0
2018-Jul-18 07:31N 36°48' W 076°18'0 0.0
2018-Jul-18 07:01N 36°48' W 076°18'0 0.0
2018-Jul-18 06:31N 36°48' W 076°18'0 0.0
2018-Jul-18 06:00N 36°48' W 076°18'0 0.0
2018-Jul-18 05:31N 36°48' W 076°18'0 0.0
2018-Jul-18 05:01N 36°48' W 076°18'0 0.0
2018-Jul-18 04:31N 36°48' W 076°18'0 0.0
2018-Jul-18 04:00N 36°48' W 076°18'0 0.0
2018-Jul-18 03:31N 36°48' W 076°18'0 0.0
2018-Jul-18 03:01N 36°48' W 076°18'0 0.0
2018-Jul-18 02:31N 36°48' W 076°18'0 0.0
2018-Jul-18 02:01N 36°48' W 076°18'0 0.0
2018-Jul-18 01:31N 36°48' W 076°18'0 0.0
2018-Jul-18 01:01N 36°48' W 076°18'0 0.0
2018-Jul-18 00:30N 36°48' W 076°18'0 0.0
2018-Jul-18 00:01N 36°48' W 076°18'0 0.0
2018-Jul-17 23:31N 36°48' W 076°18'0 0.0
2018-Jul-17 23:01N 36°48' W 076°18'0 0.0
2018-Jul-17 22:31N 36°48' W 076°18'0 0.0
2018-Jul-17 22:01N 36°48' W 076°18'0 0.0
2018-Jul-17 21:31N 36°48' W 076°18'0 0.0
2018-Jul-17 21:01N 36°48' W 076°18'0 0.0
2018-Jul-17 20:31N 36°48' W 076°18'0 0.0
2018-Jul-17 20:01N 36°48' W 076°18'0 0.0
2018-Jul-17 19:31N 36°48' W 076°18'0 0.0
2018-Jul-17 19:01N 36°48' W 076°18'0 0.0
2018-Jul-17 18:31N 36°48' W 076°18'0 0.0
2018-Jul-17 18:01N 36°48' W 076°18'0 0.0
2018-Jul-17 17:30N 36°48' W 076°18'0 0.0
2018-Jul-17 17:01N 36°48' W 076°18'0 0.0
2018-Jul-17 16:30N 36°48' W 076°18'0 0.0
2018-Jul-17 16:01N 36°48' W 076°18'0 0.0
2018-Jul-17 15:31N 36°48' W 076°18'0 0.0
2018-Jul-17 15:00N 36°48' W 076°18'0 0.0
2018-Jul-17 14:31N 36°48' W 076°18'0 0.0
2018-Jul-17 14:01N 36°48' W 076°18'0 0.0
2018-Jul-17 13:31N 36°48' W 076°18'0 0.0
2018-Jul-17 13:00N 36°48' W 076°18'0 0.0
2018-Jul-17 12:30N 36°48' W 076°18'0 0.0
2018-Jul-17 12:01N 36°48' W 076°18'0 0.0
2018-Jul-17 11:31N 36°48' W 076°18'0 0.0
2018-Jul-17 11:01N 36°48' W 076°18'0 0.0
2018-Jul-17 10:31N 36°48' W 076°18'0 0.0
2018-Jul-17 10:00N 36°48' W 076°18'0 0.0
2018-Jul-17 09:30N 36°48' W 076°18'0 0.0
2018-Jul-17 09:00N 36°48' W 076°18'0 0.0
2018-Jul-17 08:31N 36°48' W 076°18'0 0.0
2018-Jul-17 08:01N 36°48' W 076°18'0 0.0
2018-Jul-17 07:30N 36°48' W 076°18'0 0.0
2018-Jul-17 07:00N 36°48' W 076°18'0 0.0
2018-Jul-17 06:31N 36°48' W 076°18'0 0.0
2018-Jul-17 06:01N 36°48' W 076°18'0 0.0
2018-Jul-17 05:31N 36°48' W 076°18'0 0.0
2018-Jul-17 05:00N 36°48' W 076°18'0 0.0
2018-Jul-17 04:31N 36°48' W 076°18'0 0.0
2018-Jul-17 04:01N 36°48' W 076°18'0 0.0
2018-Jul-17 03:31N 36°48' W 076°18'0 0.0
2018-Jul-17 03:00N 36°48' W 076°18'0 0.0
2018-Jul-17 02:31N 36°48' W 076°18'0 0.0
2018-Jul-17 02:01N 36°48' W 076°18'0 0.0
2018-Jul-17 01:31N 36°48' W 076°18'0 0.0
2018-Jul-17 01:01N 36°48' W 076°18'0 0.0
2018-Jul-17 00:29N 36°48' W 076°18'0 0.0
2018-Jul-16 23:31N 36°48' W 076°18'0 0.0
2018-Jul-16 23:01N 36°48' W 076°18'0 0.0
2018-Jul-16 22:31N 36°48' W 076°18'0 0.0
2018-Jul-16 22:01N 36°48' W 076°18'0 0.0
2018-Jul-16 21:30N 36°48' W 076°18'0 0.0
2018-Jul-16 21:01N 36°48' W 076°18'0 0.0
2018-Jul-16 20:31N 36°48' W 076°18'0 0.0
2018-Jul-16 20:01N 36°48' W 076°18'0 0.0
2018-Jul-16 19:31N 36°48' W 076°18'0 0.0
2018-Jul-16 19:01N 36°48' W 076°18'0 0.0
2018-Jul-16 18:31N 36°48' W 076°18'0 0.0
2018-Jul-16 18:01N 36°48' W 076°18'0 0.0
2018-Jul-16 17:30N 36°48' W 076°18'0 0.0
2018-Jul-16 17:01N 36°48' W 076°18'0 0.0
2018-Jul-16 16:30N 36°48' W 076°18'0 0.0
2018-Jul-16 16:00N 36°48' W 076°18'0 0.0
2018-Jul-16 15:30N 36°48' W 076°18'0 0.0
2018-Jul-16 15:01N 36°48' W 076°18'0 0.0
2018-Jul-16 14:30N 36°48' W 076°18'0 0.0
2018-Jul-16 14:00N 36°48' W 076°18'0 0.0
2018-Jul-16 13:31N 36°48' W 076°18'0 0.0
2018-Jul-16 13:01N 36°48' W 076°18'0 0.0
2018-Jul-16 12:30N 36°48' W 076°18'0 0.0
2018-Jul-16 12:01N 36°48' W 076°18'0 0.1
2018-Jul-16 11:31N 36°48' W 076°18'0 0.0
2018-Jul-16 11:00N 36°48' W 076°18'0 0.1
2018-Jul-16 10:31N 36°48' W 076°18'0 0.0
2018-Jul-16 10:01N 36°48' W 076°18'0 0.0
2018-Jul-16 09:30N 36°48' W 076°18'0 0.0
2018-Jul-16 09:00N 36°48' W 076°18'0 0.0
2018-Jul-16 08:30N 36°48' W 076°18'0 0.0
2018-Jul-16 08:00N 36°48' W 076°18'0 0.0
2018-Jul-16 07:30N 36°48' W 076°18'0 0.0
2018-Jul-16 07:00N 36°48' W 076°18'0 0.0
2018-Jul-16 06:30N 36°48' W 076°18'0 0.0
2018-Jul-16 06:00N 36°48' W 076°18'0 0.0
2018-Jul-16 05:30N 36°48' W 076°18'0 0.0
2018-Jul-16 05:00N 36°48' W 076°18'0 0.0
2018-Jul-16 04:30N 36°48' W 076°18'0 0.0
2018-Jul-16 04:00N 36°48' W 076°18'0 0.0
2018-Jul-16 03:30N 36°48' W 076°18'0 0.0
2018-Jul-16 03:00N 36°48' W 076°18'0 0.0
2018-Jul-16 02:30N 36°48' W 076°18'0 0.0
2018-Jul-16 02:00N 36°48' W 076°18'0 0.0
2018-Jul-16 01:30N 36°48' W 076°18'0 0.0
2018-Jul-16 01:00N 36°48' W 076°18'0 0.0
2018-Jul-16 00:30N 36°48' W 076°18'0 0.0
2018-Jul-16 00:00N 36°48' W 076°18'0 0.0
2018-Jul-15 23:30N 36°48' W 076°18'0 0.0
2018-Jul-15 23:00N 36°48' W 076°18'0 0.0
2018-Jul-15 22:30N 36°48' W 076°18'0 0.0
2018-Jul-15 22:00N 36°48' W 076°18'0 0.0
2018-Jul-15 21:30N 36°48' W 076°18'0 0.0
2018-Jul-15 21:00N 36°48' W 076°18'0 0.0
2018-Jul-15 20:30N 36°48' W 076°18'0 0.0
2018-Jul-15 20:00N 36°48' W 076°18'0 0.0
2018-Jul-15 19:30N 36°48' W 076°18'0 0.0
2018-Jul-15 19:00N 36°48' W 076°18'0 0.0
2018-Jul-15 18:30N 36°48' W 076°18'0 0.0
2018-Jul-15 18:00N 36°48' W 076°18'0 0.0
2018-Jul-15 17:30N 36°48' W 076°18'0 0.0
2018-Jul-15 17:00N 36°48' W 076°18'0 0.0
2018-Jul-15 16:30N 36°48' W 076°18'0 0.0
2018-Jul-15 16:00N 36°48' W 076°18'0 0.0
2018-Jul-15 15:30N 36°48' W 076°18'0 0.0
2018-Jul-15 15:00N 36°48' W 076°18'0 0.0
2018-Jul-15 14:30N 36°48' W 076°18'0 0.0
2018-Jul-15 14:00N 36°48' W 076°18'0 0.0
2018-Jul-15 13:30N 36°48' W 076°18'0 0.0
2018-Jul-15 13:00N 36°48' W 076°18'0 0.0
2018-Jul-15 12:30N 36°48' W 076°18'0 0.0
2018-Jul-15 12:00N 36°48' W 076°18'0 0.0
2018-Jul-15 11:30N 36°48' W 076°18'0 0.0
2018-Jul-15 11:00N 36°48' W 076°18'0 0.0
2018-Jul-15 10:30N 36°48' W 076°18'0 0.0
2018-Jul-15 10:00N 36°48' W 076°18'0 0.0
2018-Jul-15 09:30N 36°48' W 076°18'0 0.0
2018-Jul-15 09:00N 36°48' W 076°18'0 0.0
2018-Jul-15 08:29N 36°48' W 076°18'0 0.0
2018-Jul-15 08:00N 36°48' W 076°18'0 0.0
2018-Jul-15 07:30N 36°48' W 076°18'0 0.0
2018-Jul-15 07:00N 36°48' W 076°18'0 0.0
2018-Jul-15 06:30N 36°48' W 076°18'0 0.0
2018-Jul-15 06:00N 36°48' W 076°18'0 0.0
2018-Jul-15 05:30N 36°48' W 076°18'0 0.0
2018-Jul-15 05:00N 36°48' W 076°18'0 0.0
2018-Jul-15 04:30N 36°48' W 076°18'0 0.0
2018-Jul-15 04:00N 36°48' W 076°18'0 0.0
2018-Jul-15 03:30N 36°48' W 076°18'0 0.0
2018-Jul-15 03:00N 36°48' W 076°18'0 0.0
2018-Jul-15 02:30N 36°48' W 076°18'0 0.0
2018-Jul-15 02:00N 36°48' W 076°18'0 0.0
2018-Jul-15 01:30N 36°48' W 076°18'0 0.0
2018-Jul-15 01:00N 36°48' W 076°18'0 0.0
2018-Jul-15 00:30N 36°48' W 076°18'0 0.0
2018-Jul-15 00:00N 36°48' W 076°18'0 0.0
2018-Jul-14 23:30N 36°48' W 076°18'0 0.0
2018-Jul-14 23:00N 36°48' W 076°18'0 0.0
2018-Jul-14 22:30N 36°48' W 076°18'0 0.0
2018-Jul-14 22:00N 36°48' W 076°18'0 0.0
2018-Jul-14 21:30N 36°48' W 076°18'0 0.0
2018-Jul-14 21:00N 36°48' W 076°18'0 0.0
2018-Jul-14 20:30N 36°48' W 076°18'0 0.0
2018-Jul-14 20:00N 36°48' W 076°18'0 0.0
2018-Jul-14 19:30N 36°48' W 076°18'0 0.0
2018-Jul-14 19:00N 36°48' W 076°18'0 0.0
2018-Jul-14 18:30N 36°48' W 076°18'0 0.0
2018-Jul-14 18:00N 36°48' W 076°18'0 0.0
2018-Jul-14 17:30N 36°48' W 076°18'0 0.0
2018-Jul-14 16:59N 36°48' W 076°18'0 0.0
2018-Jul-14 16:30N 36°48' W 076°18'0 0.0
2018-Jul-14 16:00N 36°48' W 076°18'0 0.0
2018-Jul-14 15:30N 36°48' W 076°18'0 0.0
2018-Jul-14 15:00N 36°48' W 076°18'1 1.0
2018-Jul-14 14:30N 36°48' W 076°17'2 2.3
2018-Jul-14 13:30N 36°50' W 076°16'2 4.6
2018-Jul-14 13:00N 36°48' W 076°17'2 4.6
2018-Jul-14 12:30N 36°46' W 076°18'2 4.9
2018-Jul-14 12:00N 36°44' W 076°17'2 3.2
2018-Jul-14 11:29N 36°43' W 076°15'1 0.0
2018-Jul-12 19:55N 36°43' W 076°14'1 1.6
2018-Jul-12 19:25N 36°43' W 076°15'1 2.5
2018-Jul-12 19:00N 36°44' W 076°16'2 3.4
2018-Jul-12 18:30N 36°45' W 076°18'2 4.1
2018-Jul-12 18:00N 36°47' W 076°18'3 5.3
2018-Jul-12 17:30N 36°50' W 076°18'3 5.4
2018-Jul-12 16:59N 36°52' W 076°19'2 3.2
2018-Jul-12 16:30N 36°53' W 076°20'0 0.0
2018-Jul-12 16:00N 36°53' W 076°20'0 0.0
2018-Jul-12 15:30N 36°53' W 076°20'0 0.0
2018-Jul-12 15:00N 36°53' W 076°20'0 0.0
2018-Jul-12 14:30N 36°53' W 076°20'0 0.0
2018-Jul-12 14:00N 36°53' W 076°20'0 0.0
2018-Jul-12 13:30N 36°53' W 076°20'0 0.0
2018-Jul-12 13:00N 36°53' W 076°20'  

Dump ship's entire track history